< < Back
Terminal Aerodrome Forecast


Current Version              Previous Versions:   1  2  3  4  5  6  7  8  9  

Terminal Aerodrome Forecast

885
FTUS44 KOHX 261100 AAC
TAFBNA
TAF AMD
KBNA 261102Z 2611/2706 32006KT P6SM OVC007
      TEMPO 2611/2613 4SM BR
     FM261400 34007KT P6SM OVC015
     FM262100 36007KT P6SM OVC025
     FM270200 36007KT P6SM SCT150=

Latest METAR

142
SAUS70 KWBC 261900 RRD
MTRBNA
METAR KBNA 261853Z 35006KT 10SM BKN014 OVC022 12/09 A2984 RMK AO2 SLP103
T01220089


USA.gov is the U.S. government's official web portal to all federal, state and local government web resources and services.